sensor_id;sensor_type;location;lat;lon;timestamp;P1;durP1;ratioP1;P2;durP2;ratioP2
20653;SDS011;21083;50.898;4.902;2023-08-12T00:02:14;13.40;;;5.70;;
20653;SDS011;21083;50.898;4.902;2023-08-12T00:04:41;16.45;;;6.60;;
20653;SDS011;21083;50.898;4.902;2023-08-12T00:07:08;15.30;;;6.88;;
20653;SDS011;21083;50.898;4.902;2023-08-12T00:09:35;15.88;;;5.97;;
20653;SDS011;21083;50.898;4.902;2023-08-12T00:12:02;15.95;;;6.72;;
20653;SDS011;21083;50.898;4.902;2023-08-12T00:14:31;15.65;;;6.68;;
20653;SDS011;21083;50.898;4.902;2023-08-12T00:16:58;16.05;;;7.13;;
20653;SDS011;21083;50.898;4.902;2023-08-12T00:19:25;19.25;;;6.80;;
20653;SDS011;21083;50.898;4.902;2023-08-12T00:21:52;15.57;;;6.97;;
20653;SDS011;21083;50.898;4.902;2023-08-12T00:24:19;14.20;;;6.60;;
20653;SDS011;21083;50.898;4.902;2023-08-12T00:26:46;16.38;;;6.70;;
20653;SDS011;21083;50.898;4.902;2023-08-12T00:29:13;11.65;;;5.78;;
20653;SDS011;21083;50.898;4.902;2023-08-12T00:31:41;20.65;;;7.07;;
20653;SDS011;21083;50.898;4.902;2023-08-12T00:34:08;15.35;;;7.00;;
20653;SDS011;21083;50.898;4.902;2023-08-12T00:36:35;16.77;;;6.75;;
20653;SDS011;21083;50.898;4.902;2023-08-12T00:39:03;14.88;;;6.07;;
20653;SDS011;21083;50.898;4.902;2023-08-12T00:41:30;15.90;;;5.18;;
20653;SDS011;21083;50.898;4.902;2023-08-12T00:43:57;11.40;;;3.65;;
20653;SDS011;21083;50.898;4.902;2023-08-12T00:46:24;10.60;;;2.90;;
20653;SDS011;21083;50.898;4.902;2023-08-12T00:48:52;11.18;;;3.60;;
20653;SDS011;21083;50.898;4.902;2023-08-12T00:51:19;8.25;;;3.25;;
20653;SDS011;21083;50.898;4.902;2023-08-12T00:53:47;8.95;;;3.60;;
20653;SDS011;21083;50.898;4.902;2023-08-12T00:56:16;9.95;;;3.45;;
20653;SDS011;21083;50.898;4.902;2023-08-12T00:58:44;10.95;;;4.28;;
20653;SDS011;21083;50.898;4.902;2023-08-12T01:01:11;9.55;;;3.28;;
20653;SDS011;21083;50.898;4.902;2023-08-12T01:03:39;13.85;;;3.65;;
20653;SDS011;21083;50.898;4.902;2023-08-12T01:06:08;12.43;;;3.72;;
20653;SDS011;21083;50.898;4.902;2023-08-12T01:08:36;12.20;;;4.28;;
20653;SDS011;21083;50.898;4.902;2023-08-12T01:11:04;10.27;;;3.95;;
20653;SDS011;21083;50.898;4.902;2023-08-12T01:13:42;12.95;;;4.03;;
20653;SDS011;21083;50.898;4.902;2023-08-12T01:16:16;8.02;;;3.85;;
20653;SDS011;21083;50.898;4.902;2023-08-12T01:18:45;11.68;;;4.00;;
20653;SDS011;21083;50.898;4.902;2023-08-12T01:21:15;13.55;;;4.07;;
20653;SDS011;21083;50.898;4.902;2023-08-12T01:23:44;13.02;;;4.55;;
20653;SDS011;21083;50.898;4.902;2023-08-12T01:26:11;13.15;;;4.43;;
20653;SDS011;21083;50.898;4.902;2023-08-12T01:28:38;14.30;;;4.40;;
20653;SDS011;21083;50.898;4.902;2023-08-12T01:31:06;10.30;;;4.43;;
20653;SDS011;21083;50.898;4.902;2023-08-12T01:33:39;10.70;;;4.40;;
20653;SDS011;21083;50.898;4.902;2023-08-12T01:36:12;12.45;;;4.43;;
20653;SDS011;21083;50.898;4.902;2023-08-12T01:38:45;13.30;;;4.13;;
20653;SDS011;21083;50.898;4.902;2023-08-12T01:41:13;11.98;;;4.28;;
20653;SDS011;21083;50.898;4.902;2023-08-12T01:43:42;12.43;;;4.18;;
20653;SDS011;21083;50.898;4.902;2023-08-12T01:46:09;11.88;;;4.60;;
20653;SDS011;21083;50.898;4.902;2023-08-12T01:48:37;11.50;;;4.50;;
20653;SDS011;21083;50.898;4.902;2023-08-12T01:51:04;12.85;;;4.82;;
20653;SDS011;21083;50.898;4.902;2023-08-12T01:53:32;12.50;;;4.80;;
20653;SDS011;21083;50.898;4.902;2023-08-12T01:56:00;12.90;;;4.97;;
20653;SDS011;21083;50.898;4.902;2023-08-12T01:58:27;13.25;;;5.25;;
20653;SDS011;21083;50.898;4.902;2023-08-12T02:00:54;13.07;;;5.50;;
20653;SDS011;21083;50.898;4.902;2023-08-12T02:03:21;14.90;;;6.53;;
20653;SDS011;21083;50.898;4.902;2023-08-12T02:05:48;11.93;;;5.63;;
20653;SDS011;21083;50.898;4.902;2023-08-12T02:08:15;15.50;;;6.15;;
20653;SDS011;21083;50.898;4.902;2023-08-12T02:10:42;12.90;;;5.53;;
20653;SDS011;21083;50.898;4.902;2023-08-12T02:13:10;15.65;;;6.47;;
20653;SDS011;21083;50.898;4.902;2023-08-12T02:15:37;12.73;;;5.10;;
20653;SDS011;21083;50.898;4.902;2023-08-12T02:18:04;16.27;;;5.93;;
20653;SDS011;21083;50.898;4.902;2023-08-12T02:20:32;16.77;;;6.50;;
20653;SDS011;21083;50.898;4.902;2023-08-12T02:22:59;15.18;;;6.20;;
20653;SDS011;21083;50.898;4.902;2023-08-12T02:25:26;15.05;;;6.38;;
20653;SDS011;21083;50.898;4.902;2023-08-12T02:27:53;14.82;;;6.10;;
20653;SDS011;21083;50.898;4.902;2023-08-12T02:30:21;18.35;;;7.15;;
20653;SDS011;21083;50.898;4.902;2023-08-12T02:32:48;17.55;;;6.88;;
20653;SDS011;21083;50.898;4.902;2023-08-12T02:35:15;14.82;;;6.10;;
20653;SDS011;21083;50.898;4.902;2023-08-12T02:37:43;15.70;;;7.03;;
20653;SDS011;21083;50.898;4.902;2023-08-12T02:40:10;15.27;;;7.22;;
20653;SDS011;21083;50.898;4.902;2023-08-12T02:42:38;19.25;;;7.28;;
20653;SDS011;21083;50.898;4.902;2023-08-12T02:45:05;19.65;;;7.97;;
20653;SDS011;21083;50.898;4.902;2023-08-12T02:47:34;15.55;;;6.57;;
20653;SDS011;21083;50.898;4.902;2023-08-12T02:50:01;16.27;;;7.72;;
20653;SDS011;21083;50.898;4.902;2023-08-12T02:52:28;15.95;;;7.07;;
20653;SDS011;21083;50.898;4.902;2023-08-12T02:54:55;18.63;;;7.65;;
20653;SDS011;21083;50.898;4.902;2023-08-12T02:57:22;17.15;;;7.13;;
20653;SDS011;21083;50.898;4.902;2023-08-12T02:59:49;13.93;;;6.43;;
20653;SDS011;21083;50.898;4.902;2023-08-12T03:02:16;22.88;;;8.25;;
20653;SDS011;21083;50.898;4.902;2023-08-12T03:04:45;15.73;;;6.65;;
20653;SDS011;21083;50.898;4.902;2023-08-12T03:07:12;16.98;;;7.70;;
20653;SDS011;21083;50.898;4.902;2023-08-12T03:09:39;23.25;;;8.18;;
20653;SDS011;21083;50.898;4.902;2023-08-12T03:12:06;20.17;;;7.65;;
20653;SDS011;21083;50.898;4.902;2023-08-12T03:14:33;20.23;;;9.02;;
20653;SDS011;21083;50.898;4.902;2023-08-12T03:17:00;20.38;;;8.05;;
20653;SDS011;21083;50.898;4.902;2023-08-12T03:19:27;21.13;;;8.60;;
20653;SDS011;21083;50.898;4.902;2023-08-12T03:21:55;22.02;;;9.80;;
20653;SDS011;21083;50.898;4.902;2023-08-12T03:24:23;18.73;;;9.23;;
20653;SDS011;21083;50.898;4.902;2023-08-12T03:26:50;19.80;;;9.55;;
20653;SDS011;21083;50.898;4.902;2023-08-12T03:29:17;17.85;;;8.82;;
20653;SDS011;21083;50.898;4.902;2023-08-12T03:31:44;16.23;;;8.63;;
20653;SDS011;21083;50.898;4.902;2023-08-12T03:34:11;19.52;;;9.07;;
20653;SDS011;21083;50.898;4.902;2023-08-12T03:36:38;17.00;;;8.30;;
20653;SDS011;21083;50.898;4.902;2023-08-12T03:39:06;18.45;;;9.05;;
20653;SDS011;21083;50.898;4.902;2023-08-12T03:41:33;17.77;;;8.98;;
20653;SDS011;21083;50.898;4.902;2023-08-12T03:44:00;17.67;;;7.90;;
20653;SDS011;21083;50.898;4.902;2023-08-12T03:46:27;17.08;;;7.60;;
20653;SDS011;21083;50.898;4.902;2023-08-12T03:48:54;14.27;;;7.30;;
20653;SDS011;21083;50.898;4.902;2023-08-12T03:51:21;18.67;;;8.63;;
20653;SDS011;21083;50.898;4.902;2023-08-12T03:53:48;16.55;;;8.27;;
20653;SDS011;21083;50.898;4.902;2023-08-12T03:56:16;16.13;;;8.60;;
20653;SDS011;21083;50.898;4.902;2023-08-12T03:58:43;17.55;;;8.30;;
20653;SDS011;21083;50.898;4.902;2023-08-12T04:01:11;18.05;;;8.73;;
20653;SDS011;21083;50.898;4.902;2023-08-12T04:03:38;18.58;;;7.57;;
20653;SDS011;21083;50.898;4.902;2023-08-12T04:06:04;18.92;;;8.57;;
20653;SDS011;21083;50.898;4.902;2023-08-12T04:08:31;17.10;;;7.97;;
20653;SDS011;21083;50.898;4.902;2023-08-12T04:10:59;17.40;;;8.25;;
20653;SDS011;21083;50.898;4.902;2023-08-12T04:13:28;14.95;;;8.38;;
20653;SDS011;21083;50.898;4.902;2023-08-12T04:15:55;15.35;;;7.40;;
20653;SDS011;21083;50.898;4.902;2023-08-12T04:18:22;16.08;;;7.10;;
20653;SDS011;21083;50.898;4.902;2023-08-12T04:20:49;18.50;;;7.85;;
20653;SDS011;21083;50.898;4.902;2023-08-12T04:23:16;17.52;;;8.10;;
20653;SDS011;21083;50.898;4.902;2023-08-12T04:25:44;15.18;;;6.85;;
20653;SDS011;21083;50.898;4.902;2023-08-12T04:28:11;15.70;;;7.60;;
20653;SDS011;21083;50.898;4.902;2023-08-12T04:30:41;14.93;;;7.97;;
20653;SDS011;21083;50.898;4.902;2023-08-12T04:33:08;19.90;;;7.65;;
20653;SDS011;21083;50.898;4.902;2023-08-12T04:35:35;19.20;;;8.10;;
20653;SDS011;21083;50.898;4.902;2023-08-12T04:38:03;17.65;;;7.93;;
20653;SDS011;21083;50.898;4.902;2023-08-12T04:40:30;14.77;;;7.22;;
20653;SDS011;21083;50.898;4.902;2023-08-12T04:42:58;11.98;;;6.63;;
20653;SDS011;21083;50.898;4.902;2023-08-12T04:45:25;17.25;;;7.15;;
20653;SDS011;21083;50.898;4.902;2023-08-12T04:47:53;15.90;;;7.43;;
20653;SDS011;21083;50.898;4.902;2023-08-12T04:50:21;15.27;;;7.63;;
20653;SDS011;21083;50.898;4.902;2023-08-12T04:52:49;13.30;;;7.43;;
20653;SDS011;21083;50.898;4.902;2023-08-12T04:55:16;13.88;;;7.75;;
20653;SDS011;21083;50.898;4.902;2023-08-12T04:57:43;17.42;;;7.88;;
20653;SDS011;21083;50.898;4.902;2023-08-12T05:00:10;14.20;;;7.07;;
20653;SDS011;21083;50.898;4.902;2023-08-12T05:02:38;21.65;;;7.10;;
20653;SDS011;21083;50.898;4.902;2023-08-12T05:05:07;13.13;;;7.43;;
20653;SDS011;21083;50.898;4.902;2023-08-12T05:07:35;19.85;;;7.40;;
20653;SDS011;21083;50.898;4.902;2023-08-12T05:10:02;16.13;;;7.93;;
20653;SDS011;21083;50.898;4.902;2023-08-12T05:12:29;21.38;;;8.32;;
20653;SDS011;21083;50.898;4.902;2023-08-12T05:14:56;13.00;;;7.35;;
20653;SDS011;21083;50.898;4.902;2023-08-12T05:17:23;14.43;;;7.20;;
20653;SDS011;21083;50.898;4.902;2023-08-12T05:19:50;14.68;;;7.22;;
20653;SDS011;21083;50.898;4.902;2023-08-12T05:22:19;14.95;;;8.23;;
20653;SDS011;21083;50.898;4.902;2023-08-12T05:24:46;12.43;;;6.88;;
20653;SDS011;21083;50.898;4.902;2023-08-12T05:27:13;17.80;;;7.22;;
20653;SDS011;21083;50.898;4.902;2023-08-12T05:29:40;15.05;;;7.57;;
20653;SDS011;21083;50.898;4.902;2023-08-12T05:32:07;19.77;;;8.45;;
20653;SDS011;21083;50.898;4.902;2023-08-12T05:34:34;14.80;;;7.30;;
20653;SDS011;21083;50.898;4.902;2023-08-12T05:37:01;13.35;;;7.18;;
20653;SDS011;21083;50.898;4.902;2023-08-12T05:39:29;13.07;;;6.03;;
20653;SDS011;21083;50.898;4.902;2023-08-12T05:41:56;12.68;;;6.43;;
20653;SDS011;21083;50.898;4.902;2023-08-12T05:44:23;12.43;;;5.07;;
20653;SDS011;21083;50.898;4.902;2023-08-12T05:46:50;11.35;;;5.43;;
20653;SDS011;21083;50.898;4.902;2023-08-12T05:49:17;10.27;;;4.70;;
20653;SDS011;21083;50.898;4.902;2023-08-12T05:51:44;12.10;;;3.97;;
20653;SDS011;21083;50.898;4.902;2023-08-12T05:54:12;12.15;;;4.57;;
20653;SDS011;21083;50.898;4.902;2023-08-12T05:56:40;10.65;;;4.28;;
20653;SDS011;21083;50.898;4.902;2023-08-12T05:59:07;9.48;;;4.00;;
20653;SDS011;21083;50.898;4.902;2023-08-12T06:01:34;11.18;;;4.43;;
20653;SDS011;21083;50.898;4.902;2023-08-12T06:04:01;7.00;;;3.75;;
20653;SDS011;21083;50.898;4.902;2023-08-12T06:06:28;8.48;;;4.22;;
20653;SDS011;21083;50.898;4.902;2023-08-12T06:08:55;8.40;;;4.03;;
20653;SDS011;21083;50.898;4.902;2023-08-12T06:11:22;9.32;;;3.63;;
20653;SDS011;21083;50.898;4.902;2023-08-12T06:13:50;10.85;;;3.78;;
20653;SDS011;21083;50.898;4.902;2023-08-12T06:16:17;9.45;;;4.30;;
20653;SDS011;21083;50.898;4.902;2023-08-12T06:18:44;7.97;;;3.70;;
20653;SDS011;21083;50.898;4.902;2023-08-12T06:21:11;9.27;;;3.65;;
20653;SDS011;21083;50.898;4.902;2023-08-12T06:23:38;7.55;;;3.60;;
20653;SDS011;21083;50.898;4.902;2023-08-12T06:26:05;11.45;;;4.35;;
20653;SDS011;21083;50.898;4.902;2023-08-12T06:28:32;10.13;;;4.03;;
20653;SDS011;21083;50.898;4.902;2023-08-12T06:31:00;8.13;;;3.17;;
20653;SDS011;21083;50.898;4.902;2023-08-12T06:33:27;10.18;;;3.33;;
20653;SDS011;21083;50.898;4.902;2023-08-12T06:35:54;5.25;;;2.85;;
20653;SDS011;21083;50.898;4.902;2023-08-12T06:38:21;8.15;;;3.10;;
20653;SDS011;21083;50.898;4.902;2023-08-12T06:40:48;8.07;;;2.75;;
20653;SDS011;21083;50.898;4.902;2023-08-12T06:43:15;8.13;;;2.78;;
20653;SDS011;21083;50.898;4.902;2023-08-12T06:45:42;7.03;;;2.30;;
20653;SDS011;21083;50.898;4.902;2023-08-12T06:48:11;6.10;;;2.22;;
20653;SDS011;21083;50.898;4.902;2023-08-12T06:50:38;6.57;;;2.03;;
20653;SDS011;21083;50.898;4.902;2023-08-12T06:53:05;5.53;;;2.10;;
20653;SDS011;21083;50.898;4.902;2023-08-12T06:55:32;5.00;;;1.80;;
20653;SDS011;21083;50.898;4.902;2023-08-12T06:57:59;5.30;;;2.40;;
20653;SDS011;21083;50.898;4.902;2023-08-12T07:00:27;4.55;;;1.95;;
20653;SDS011;21083;50.898;4.902;2023-08-12T07:02:54;3.55;;;2.00;;
20653;SDS011;21083;50.898;4.902;2023-08-12T07:05:23;3.85;;;1.80;;
20653;SDS011;21083;50.898;4.902;2023-08-12T07:07:49;8.18;;;2.00;;
20653;SDS011;21083;50.898;4.902;2023-08-12T07:10:16;6.13;;;1.95;;
20653;SDS011;21083;50.898;4.902;2023-08-12T07:12:43;2.13;;;1.27;;
20653;SDS011;21083;50.898;4.902;2023-08-12T07:15:10;4.53;;;1.50;;
20653;SDS011;21083;50.898;4.902;2023-08-12T07:17:37;3.00;;;1.20;;
20653;SDS011;21083;50.898;4.902;2023-08-12T07:20:05;4.18;;;0.93;;
20653;SDS011;21083;50.898;4.902;2023-08-12T07:22:34;4.25;;;1.30;;
20653;SDS011;21083;50.898;4.902;2023-08-12T07:25:01;3.50;;;1.33;;
20653;SDS011;21083;50.898;4.902;2023-08-12T07:27:28;2.60;;;1.10;;
20653;SDS011;21083;50.898;4.902;2023-08-12T07:29:55;4.18;;;1.13;;
20653;SDS011;21083;50.898;4.902;2023-08-12T07:32:22;3.22;;;1.00;;
20653;SDS011;21083;50.898;4.902;2023-08-12T07:34:49;5.10;;;0.90;;
20653;SDS011;21083;50.898;4.902;2023-08-12T07:37:16;4.97;;;1.15;;
20653;SDS011;21083;50.898;4.902;2023-08-12T07:39:45;3.25;;;1.10;;
20653;SDS011;21083;50.898;4.902;2023-08-12T07:42:12;5.05;;;0.90;;
20653;SDS011;21083;50.898;4.902;2023-08-12T07:44:39;3.97;;;0.82;;
20653;SDS011;21083;50.898;4.902;2023-08-12T07:47:06;2.10;;;0.90;;
20653;SDS011;21083;50.898;4.902;2023-08-12T07:49:33;3.50;;;0.70;;
20653;SDS011;21083;50.898;4.902;2023-08-12T07:52:00;1.40;;;0.50;;
20653;SDS011;21083;50.898;4.902;2023-08-12T07:54:27;2.72;;;0.70;;
20653;SDS011;21083;50.898;4.902;2023-08-12T07:56:55;3.42;;;0.65;;
20653;SDS011;21083;50.898;4.902;2023-08-12T07:59:22;5.60;;;0.85;;
20653;SDS011;21083;50.898;4.902;2023-08-12T08:01:50;3.10;;;0.40;;
20653;SDS011;21083;50.898;4.902;2023-08-12T08:04:17;0.70;;;0.50;;
20653;SDS011;21083;50.898;4.902;2023-08-12T08:06:44;1.25;;;0.55;;
20653;SDS011;21083;50.898;4.902;2023-08-12T08:09:11;4.28;;;0.70;;
20653;SDS011;21083;50.898;4.902;2023-08-12T08:11:38;2.88;;;0.50;;
20653;SDS011;21083;50.898;4.902;2023-08-12T08:14:06;3.45;;;0.50;;
20653;SDS011;21083;50.898;4.902;2023-08-12T08:16:33;1.55;;;0.40;;
20653;SDS011;21083;50.898;4.902;2023-08-12T08:19:00;1.38;;;0.40;;
20653;SDS011;21083;50.898;4.902;2023-08-12T08:21:27;1.70;;;0.50;;
20653;SDS011;21083;50.898;4.902;2023-08-12T08:23:54;2.95;;;0.60;;
20653;SDS011;21083;50.898;4.902;2023-08-12T08:26:21;2.22;;;0.68;;
20653;SDS011;21083;50.898;4.902;2023-08-12T08:28:48;8.45;;;0.90;;
20653;SDS011;21083;50.898;4.902;2023-08-12T08:31:16;2.00;;;0.68;;
20653;SDS011;21083;50.898;4.902;2023-08-12T08:33:44;1.27;;;0.50;;
20653;SDS011;21083;50.898;4.902;2023-08-12T08:36:11;2.45;;;0.40;;
20653;SDS011;21083;50.898;4.902;2023-08-12T08:38:38;2.33;;;0.90;;
20653;SDS011;21083;50.898;4.902;2023-08-12T08:41:05;3.15;;;1.40;;
20653;SDS011;21083;50.898;4.902;2023-08-12T08:43:35;2.67;;;1.60;;
20653;SDS011;21083;50.898;4.902;2023-08-12T08:46:03;4.82;;;1.60;;
20653;SDS011;21083;50.898;4.902;2023-08-12T08:48:34;3.90;;;1.70;;
20653;SDS011;21083;50.898;4.902;2023-08-12T08:51:02;2.83;;;1.30;;
20653;SDS011;21083;50.898;4.902;2023-08-12T08:53:30;5.65;;;1.35;;
20653;SDS011;21083;50.898;4.902;2023-08-12T08:55:57;2.25;;;1.38;;
20653;SDS011;21083;50.898;4.902;2023-08-12T08:58:25;3.58;;;1.23;;
20653;SDS011;21083;50.898;4.902;2023-08-12T09:00:53;2.55;;;1.20;;
20653;SDS011;21083;50.898;4.902;2023-08-12T09:03:20;4.10;;;1.50;;
20653;SDS011;21083;50.898;4.902;2023-08-12T09:05:49;2.47;;;1.05;;
20653;SDS011;21083;50.898;4.902;2023-08-12T09:08:17;2.58;;;1.30;;
20653;SDS011;21083;50.898;4.902;2023-08-12T09:10:45;3.97;;;1.60;;
20653;SDS011;21083;50.898;4.902;2023-08-12T09:13:13;2.53;;;1.45;;
20653;SDS011;21083;50.898;4.902;2023-08-12T09:15:43;4.78;;;1.35;;
20653;SDS011;21083;50.898;4.902;2023-08-12T09:18:10;3.08;;;1.52;;
20653;SDS011;21083;50.898;4.902;2023-08-12T09:20:37;3.08;;;1.60;;
20653;SDS011;21083;50.898;4.902;2023-08-12T09:23:06;3.53;;;2.00;;
20653;SDS011;21083;50.898;4.902;2023-08-12T09:25:34;3.88;;;1.92;;
20653;SDS011;21083;50.898;4.902;2023-08-12T09:28:02;5.88;;;2.20;;
20653;SDS011;21083;50.898;4.902;2023-08-12T09:30:29;5.57;;;2.00;;
20653;SDS011;21083;50.898;4.902;2023-08-12T09:33:00;4.50;;;2.22;;
20653;SDS011;21083;50.898;4.902;2023-08-12T09:35:32;6.43;;;2.45;;
20653;SDS011;21083;50.898;4.902;2023-08-12T09:38:01;5.60;;;2.88;;
20653;SDS011;21083;50.898;4.902;2023-08-12T09:40:31;5.13;;;2.38;;
20653;SDS011;21083;50.898;4.902;2023-08-12T09:42:59;7.72;;;2.58;;
20653;SDS011;21083;50.898;4.902;2023-08-12T09:45:27;5.65;;;2.60;;
20653;SDS011;21083;50.898;4.902;2023-08-12T09:47:54;5.65;;;2.92;;
20653;SDS011;21083;50.898;4.902;2023-08-12T09:50:21;5.22;;;2.65;;
20653;SDS011;21083;50.898;4.902;2023-08-12T09:52:49;6.50;;;2.72;;
20653;SDS011;21083;50.898;4.902;2023-08-12T09:55:18;5.60;;;2.58;;
20653;SDS011;21083;50.898;4.902;2023-08-12T09:57:49;6.43;;;2.75;;
20653;SDS011;21083;50.898;4.902;2023-08-12T10:00:19;5.63;;;2.95;;
20653;SDS011;21083;50.898;4.902;2023-08-12T10:02:48;9.00;;;3.65;;
20653;SDS011;21083;50.898;4.902;2023-08-12T10:05:19;8.63;;;3.70;;
20653;SDS011;21083;50.898;4.902;2023-08-12T10:07:48;7.63;;;3.95;;
20653;SDS011;21083;50.898;4.902;2023-08-12T10:10:15;9.73;;;4.40;;
20653;SDS011;21083;50.898;4.902;2023-08-12T10:12:42;7.97;;;4.30;;
20653;SDS011;21083;50.898;4.902;2023-08-12T10:15:12;8.50;;;4.10;;
20653;SDS011;21083;50.898;4.902;2023-08-12T10:17:40;8.05;;;3.50;;
20653;SDS011;21083;50.898;4.902;2023-08-12T10:20:08;8.00;;;3.90;;
20653;SDS011;21083;50.898;4.902;2023-08-12T10:22:38;7.82;;;3.05;;
20653;SDS011;21083;50.898;4.902;2023-08-12T10:25:07;7.60;;;3.33;;
20653;SDS011;21083;50.898;4.902;2023-08-12T10:27:34;8.55;;;2.65;;
20653;SDS011;21083;50.898;4.902;2023-08-12T10:30:02;8.95;;;3.03;;
20653;SDS011;21083;50.898;4.902;2023-08-12T10:32:31;5.85;;;2.80;;
20653;SDS011;21083;50.898;4.902;2023-08-12T10:34:59;6.63;;;2.80;;
20653;SDS011;21083;50.898;4.902;2023-08-12T10:37:30;7.05;;;2.72;;
20653;SDS011;21083;50.898;4.902;2023-08-12T10:39:59;7.70;;;2.53;;
20653;SDS011;21083;50.898;4.902;2023-08-12T10:45:11;5.45;;;1.75;;
20653;SDS011;21083;50.898;4.902;2023-08-12T10:47:41;5.88;;;1.83;;
20653;SDS011;21083;50.898;4.902;2023-08-12T10:50:16;8.25;;;2.00;;
20653;SDS011;21083;50.898;4.902;2023-08-12T10:52:44;10.43;;;2.47;;
20653;SDS011;21083;50.898;4.902;2023-08-12T10:55:18;8.32;;;2.47;;
20653;SDS011;21083;50.898;4.902;2023-08-12T10:57:46;9.20;;;2.53;;
20653;SDS011;21083;50.898;4.902;2023-08-12T11:00:14;5.82;;;1.70;;
20653;SDS011;21083;50.898;4.902;2023-08-12T11:02:45;8.50;;;2.28;;
20653;SDS011;21083;50.898;4.902;2023-08-12T11:05:14;7.68;;;2.03;;
20653;SDS011;21083;50.898;4.902;2023-08-12T11:07:44;8.50;;;2.20;;
20653;SDS011;21083;50.898;4.902;2023-08-12T11:10:13;6.05;;;2.28;;
20653;SDS011;21083;50.898;4.902;2023-08-12T11:12:42;11.38;;;2.30;;
20653;SDS011;21083;50.898;4.902;2023-08-12T11:15:15;6.32;;;1.95;;
20653;SDS011;21083;50.898;4.902;2023-08-12T11:17:42;8.65;;;2.45;;
20653;SDS011;21083;50.898;4.902;2023-08-12T11:20:11;7.95;;;1.98;;
20653;SDS011;21083;50.898;4.902;2023-08-12T11:22:39;7.43;;;1.73;;
20653;SDS011;21083;50.898;4.902;2023-08-12T11:25:07;14.93;;;2.70;;
20653;SDS011;21083;50.898;4.902;2023-08-12T11:27:36;9.13;;;1.92;;
20653;SDS011;21083;50.898;4.902;2023-08-12T11:30:07;8.23;;;2.05;;
20653;SDS011;21083;50.898;4.902;2023-08-12T11:32:35;8.82;;;3.05;;
20653;SDS011;21083;50.898;4.902;2023-08-12T11:35:03;9.15;;;2.30;;
20653;SDS011;21083;50.898;4.902;2023-08-12T11:37:33;9.68;;;2.72;;
20653;SDS011;21083;50.898;4.902;2023-08-12T11:40:02;8.80;;;2.20;;
20653;SDS011;21083;50.898;4.902;2023-08-12T11:42:30;6.97;;;1.80;;
20653;SDS011;21083;50.898;4.902;2023-08-12T11:44:57;6.00;;;1.60;;
20653;SDS011;21083;50.898;4.902;2023-08-12T11:47:24;5.65;;;1.60;;
20653;SDS011;21083;50.898;4.902;2023-08-12T11:49:52;8.75;;;1.90;;
20653;SDS011;21083;50.898;4.902;2023-08-12T11:52:19;7.80;;;2.05;;
20653;SDS011;21083;50.898;4.902;2023-08-12T11:54:49;7.35;;;1.60;;
20653;SDS011;21083;50.898;4.902;2023-08-12T11:57:16;4.35;;;1.08;;
20653;SDS011;21083;50.898;4.902;2023-08-12T11:59:44;6.07;;;1.42;;
20653;SDS011;21083;50.898;4.902;2023-08-12T12:02:11;10.13;;;1.70;;
20653;SDS011;21083;50.898;4.902;2023-08-12T12:04:40;7.55;;;1.73;;
20653;SDS011;21083;50.898;4.902;2023-08-12T12:07:18;6.97;;;1.67;;
20653;SDS011;21083;50.898;4.902;2023-08-12T12:09:46;8.02;;;1.73;;
20653;SDS011;21083;50.898;4.902;2023-08-12T12:12:16;8.88;;;1.42;;
20653;SDS011;21083;50.898;4.902;2023-08-12T12:14:43;8.05;;;1.70;;
20653;SDS011;21083;50.898;4.902;2023-08-12T12:17:14;4.20;;;1.33;;
20653;SDS011;21083;50.898;4.902;2023-08-12T12:19:41;10.13;;;1.88;;
20653;SDS011;21083;50.898;4.902;2023-08-12T12:22:08;8.93;;;1.75;;
20653;SDS011;21083;50.898;4.902;2023-08-12T12:24:43;7.47;;;1.55;;
20653;SDS011;21083;50.898;4.902;2023-08-12T12:27:12;11.98;;;2.10;;
20653;SDS011;21083;50.898;4.902;2023-08-12T12:29:40;7.85;;;2.50;;
20653;SDS011;21083;50.898;4.902;2023-08-12T12:32:07;6.80;;;1.67;;
20653;SDS011;21083;50.898;4.902;2023-08-12T12:34:34;7.05;;;1.40;;
20653;SDS011;21083;50.898;4.902;2023-08-12T12:37:01;8.98;;;1.73;;
20653;SDS011;21083;50.898;4.902;2023-08-12T12:39:28;7.32;;;1.58;;
20653;SDS011;21083;50.898;4.902;2023-08-12T12:41:56;9.52;;;1.60;;
20653;SDS011;21083;50.898;4.902;2023-08-12T12:44:26;7.53;;;2.10;;
20653;SDS011;21083;50.898;4.902;2023-08-12T12:46:53;7.00;;;1.92;;
20653;SDS011;21083;50.898;4.902;2023-08-12T12:49:20;8.43;;;1.67;;
20653;SDS011;21083;50.898;4.902;2023-08-12T12:51:47;7.68;;;1.55;;
20653;SDS011;21083;50.898;4.902;2023-08-12T12:54:15;10.68;;;1.40;;
20653;SDS011;21083;50.898;4.902;2023-08-12T12:56:42;6.60;;;1.60;;
20653;SDS011;21083;50.898;4.902;2023-08-12T12:59:09;6.80;;;1.70;;
20653;SDS011;21083;50.898;4.902;2023-08-12T13:01:37;10.52;;;1.50;;
20653;SDS011;21083;50.898;4.902;2023-08-12T13:04:04;7.13;;;1.60;;
20653;SDS011;21083;50.898;4.902;2023-08-12T13:06:33;8.38;;;1.45;;
20653;SDS011;21083;50.898;4.902;2023-08-12T13:09:00;5.10;;;1.20;;
20653;SDS011;21083;50.898;4.902;2023-08-12T13:11:28;9.93;;;1.50;;
20653;SDS011;21083;50.898;4.902;2023-08-12T13:13:55;7.00;;;1.30;;
20653;SDS011;21083;50.898;4.902;2023-08-12T13:16:22;9.20;;;1.52;;
20653;SDS011;21083;50.898;4.902;2023-08-12T13:18:50;5.78;;;1.30;;
20653;SDS011;21083;50.898;4.902;2023-08-12T13:21:17;4.75;;;1.42;;
20653;SDS011;21083;50.898;4.902;2023-08-12T13:23:44;8.30;;;1.58;;
20653;SDS011;21083;50.898;4.902;2023-08-12T13:26:11;6.43;;;1.60;;
20653;SDS011;21083;50.898;4.902;2023-08-12T13:28:38;8.65;;;1.70;;
20653;SDS011;21083;50.898;4.902;2023-08-12T13:31:05;9.05;;;1.45;;
20653;SDS011;21083;50.898;4.902;2023-08-12T13:33:33;11.07;;;1.90;;
20653;SDS011;21083;50.898;4.902;2023-08-12T13:36:02;6.57;;;1.60;;
20653;SDS011;21083;50.898;4.902;2023-08-12T13:38:29;9.57;;;1.95;;
20653;SDS011;21083;50.898;4.902;2023-08-12T13:40:56;10.52;;;2.38;;
20653;SDS011;21083;50.898;4.902;2023-08-12T13:43:23;9.60;;;2.20;;
20653;SDS011;21083;50.898;4.902;2023-08-12T13:45:50;7.45;;;2.17;;
20653;SDS011;21083;50.898;4.902;2023-08-12T13:48:17;6.45;;;2.05;;
20653;SDS011;21083;50.898;4.902;2023-08-12T13:50:44;12.18;;;2.55;;
20653;SDS011;21083;50.898;4.902;2023-08-12T13:53:15;12.02;;;2.53;;
20653;SDS011;21083;50.898;4.902;2023-08-12T13:55:42;6.97;;;1.95;;
20653;SDS011;21083;50.898;4.902;2023-08-12T13:58:09;7.15;;;2.28;;
20653;SDS011;21083;50.898;4.902;2023-08-12T14:00:37;9.93;;;2.38;;
20653;SDS011;21083;50.898;4.902;2023-08-12T14:03:04;9.75;;;2.55;;
20653;SDS011;21083;50.898;4.902;2023-08-12T14:05:31;6.47;;;1.60;;
20653;SDS011;21083;50.898;4.902;2023-08-12T14:07:58;8.30;;;2.15;;
20653;SDS011;21083;50.898;4.902;2023-08-12T14:10:26;8.18;;;1.90;;
20653;SDS011;21083;50.898;4.902;2023-08-12T14:12:53;10.65;;;2.00;;
20653;SDS011;21083;50.898;4.902;2023-08-12T14:15:20;10.48;;;1.58;;
20653;SDS011;21083;50.898;4.902;2023-08-12T14:17:47;7.03;;;1.58;;
20653;SDS011;21083;50.898;4.902;2023-08-12T14:20:15;4.95;;;1.23;;
20653;SDS011;21083;50.898;4.902;2023-08-12T14:22:42;10.15;;;1.67;;
20653;SDS011;21083;50.898;4.902;2023-08-12T14:25:09;7.80;;;1.60;;
20653;SDS011;21083;50.898;4.902;2023-08-12T14:27:38;7.22;;;1.50;;
20653;SDS011;21083;50.898;4.902;2023-08-12T14:30:06;6.20;;;1.75;;
20653;SDS011;21083;50.898;4.902;2023-08-12T14:32:34;8.05;;;1.98;;
20653;SDS011;21083;50.898;4.902;2023-08-12T14:35:01;7.35;;;1.95;;
20653;SDS011;21083;50.898;4.902;2023-08-12T14:37:30;6.97;;;1.75;;
20653;SDS011;21083;50.898;4.902;2023-08-12T14:39:57;5.75;;;1.33;;
20653;SDS011;21083;50.898;4.902;2023-08-12T14:42:24;5.75;;;1.60;;
20653;SDS011;21083;50.898;4.902;2023-08-12T14:44:52;7.10;;;1.90;;
20653;SDS011;21083;50.898;4.902;2023-08-12T14:47:20;4.63;;;1.30;;